sensor_id;sensor_type;location;lat;lon;timestamp;P1;durP1;ratioP1;P2;durP2;ratioP2
19535;SDS011;9913;51.168;4.124;2023-01-28T00:02:11;19.07;;;9.83;;
19535;SDS011;9913;51.168;4.124;2023-01-28T00:04:39;15.53;;;9.13;;
19535;SDS011;9913;51.168;4.124;2023-01-28T00:07:08;17.60;;;9.97;;
19535;SDS011;9913;51.168;4.124;2023-01-28T00:09:36;17.03;;;10.10;;
19535;SDS011;9913;51.168;4.124;2023-01-28T00:12:06;18.20;;;10.47;;
19535;SDS011;9913;51.168;4.124;2023-01-28T00:14:34;19.93;;;11.60;;
19535;SDS011;9913;51.168;4.124;2023-01-28T00:17:03;16.70;;;10.93;;
19535;SDS011;9913;51.168;4.124;2023-01-28T00:19:33;16.37;;;10.10;;
19535;SDS011;9913;51.168;4.124;2023-01-28T00:22:01;19.27;;;10.67;;
19535;SDS011;9913;51.168;4.124;2023-01-28T00:24:31;19.47;;;11.53;;
19535;SDS011;9913;51.168;4.124;2023-01-28T00:26:59;19.83;;;10.83;;
19535;SDS011;9913;51.168;4.124;2023-01-28T00:29:27;16.57;;;11.17;;
19535;SDS011;9913;51.168;4.124;2023-01-28T00:31:55;18.53;;;10.57;;
19535;SDS011;9913;51.168;4.124;2023-01-28T00:34:28;17.03;;;10.27;;
19535;SDS011;9913;51.168;4.124;2023-01-28T00:36:57;16.90;;;9.47;;
19535;SDS011;9913;51.168;4.124;2023-01-28T00:39:26;16.67;;;9.30;;
19535;SDS011;9913;51.168;4.124;2023-01-28T00:41:54;15.13;;;9.47;;
19535;SDS011;9913;51.168;4.124;2023-01-28T00:44:23;15.50;;;8.70;;
19535;SDS011;9913;51.168;4.124;2023-01-28T00:46:51;15.50;;;9.53;;
19535;SDS011;9913;51.168;4.124;2023-01-28T00:49:21;12.70;;;8.00;;
19535;SDS011;9913;51.168;4.124;2023-01-28T00:51:49;14.30;;;8.97;;
19535;SDS011;9913;51.168;4.124;2023-01-28T00:54:18;15.10;;;9.30;;
19535;SDS011;9913;51.168;4.124;2023-01-28T00:56:47;13.27;;;9.27;;
19535;SDS011;9913;51.168;4.124;2023-01-28T00:59:15;13.67;;;8.23;;
19535;SDS011;9913;51.168;4.124;2023-01-28T01:01:44;13.93;;;8.40;;
19535;SDS011;9913;51.168;4.124;2023-01-28T01:04:12;13.63;;;8.17;;
19535;SDS011;9913;51.168;4.124;2023-01-28T01:06:52;12.20;;;8.20;;
19535;SDS011;9913;51.168;4.124;2023-01-28T01:09:21;12.87;;;7.60;;
19535;SDS011;9913;51.168;4.124;2023-01-28T01:11:50;12.70;;;7.10;;
19535;SDS011;9913;51.168;4.124;2023-01-28T01:14:18;11.13;;;7.83;;
19535;SDS011;9913;51.168;4.124;2023-01-28T01:16:46;11.00;;;7.20;;
19535;SDS011;9913;51.168;4.124;2023-01-28T01:19:17;10.83;;;7.07;;
19535;SDS011;9913;51.168;4.124;2023-01-28T01:21:46;11.30;;;7.30;;
19535;SDS011;9913;51.168;4.124;2023-01-28T01:24:16;10.83;;;6.77;;
19535;SDS011;9913;51.168;4.124;2023-01-28T01:26:46;13.30;;;7.77;;
19535;SDS011;9913;51.168;4.124;2023-01-28T01:29:15;12.30;;;7.47;;
19535;SDS011;9913;51.168;4.124;2023-01-28T01:31:43;9.13;;;6.30;;
19535;SDS011;9913;51.168;4.124;2023-01-28T01:34:12;12.13;;;7.33;;
19535;SDS011;9913;51.168;4.124;2023-01-28T01:36:41;10.30;;;6.90;;
19535;SDS011;9913;51.168;4.124;2023-01-28T01:39:10;11.07;;;6.63;;
19535;SDS011;9913;51.168;4.124;2023-01-28T01:41:39;11.87;;;7.40;;
19535;SDS011;9913;51.168;4.124;2023-01-28T01:47:10;11.03;;;6.40;;
19535;SDS011;9913;51.168;4.124;2023-01-28T01:49:39;10.93;;;7.10;;
19535;SDS011;9913;51.168;4.124;2023-01-28T01:52:09;11.03;;;6.63;;
19535;SDS011;9913;51.168;4.124;2023-01-28T01:54:41;11.00;;;7.07;;
19535;SDS011;9913;51.168;4.124;2023-01-28T01:57:15;10.43;;;6.50;;
19535;SDS011;9913;51.168;4.124;2023-01-28T01:59:48;9.87;;;6.70;;
19535;SDS011;9913;51.168;4.124;2023-01-28T02:02:18;9.33;;;6.00;;
19535;SDS011;9913;51.168;4.124;2023-01-28T02:04:47;9.53;;;6.27;;
19535;SDS011;9913;51.168;4.124;2023-01-28T02:07:15;8.37;;;6.47;;
19535;SDS011;9913;51.168;4.124;2023-01-28T02:09:45;11.07;;;6.57;;
19535;SDS011;9913;51.168;4.124;2023-01-28T02:12:15;10.07;;;6.20;;
19535;SDS011;9913;51.168;4.124;2023-01-28T02:14:46;11.53;;;7.13;;
19535;SDS011;9913;51.168;4.124;2023-01-28T02:17:20;11.77;;;6.77;;
19535;SDS011;9913;51.168;4.124;2023-01-28T02:19:50;9.87;;;6.20;;
19535;SDS011;9913;51.168;4.124;2023-01-28T02:22:34;11.00;;;7.67;;
19535;SDS011;9913;51.168;4.124;2023-01-28T02:28:38;9.80;;;6.60;;
19535;SDS011;9913;51.168;4.124;2023-01-28T02:31:14;12.13;;;7.70;;
19535;SDS011;9913;51.168;4.124;2023-01-28T02:33:49;10.53;;;6.43;;
19535;SDS011;9913;51.168;4.124;2023-01-28T02:36:27;12.53;;;8.27;;
19535;SDS011;9913;51.168;4.124;2023-01-28T02:39:02;12.30;;;7.83;;
19535;SDS011;9913;51.168;4.124;2023-01-28T02:41:38;16.27;;;9.17;;
19535;SDS011;9913;51.168;4.124;2023-01-28T02:44:12;12.90;;;8.43;;
19535;SDS011;9913;51.168;4.124;2023-01-28T02:46:40;12.97;;;7.73;;
19535;SDS011;9913;51.168;4.124;2023-01-28T02:49:26;12.23;;;7.77;;
19535;SDS011;9913;51.168;4.124;2023-01-28T02:55:20;14.07;;;8.43;;
19535;SDS011;9913;51.168;4.124;2023-01-28T02:57:59;12.27;;;7.73;;
19535;SDS011;9913;51.168;4.124;2023-01-28T03:00:36;12.57;;;7.80;;
19535;SDS011;9913;51.168;4.124;2023-01-28T03:03:14;12.57;;;7.90;;
19535;SDS011;9913;51.168;4.124;2023-01-28T03:05:48;15.57;;;9.00;;
19535;SDS011;9913;51.168;4.124;2023-01-28T03:08:33;14.60;;;8.33;;
19535;SDS011;9913;51.168;4.124;2023-01-28T03:11:22;15.67;;;8.70;;
19535;SDS011;9913;51.168;4.124;2023-01-28T03:14:09;13.30;;;7.90;;
19535;SDS011;9913;51.168;4.124;2023-01-28T03:16:58;13.33;;;8.53;;
19535;SDS011;9913;51.168;4.124;2023-01-28T03:19:45;13.70;;;8.50;;
19535;SDS011;9913;51.168;4.124;2023-01-28T03:22:32;13.23;;;8.17;;
19535;SDS011;9913;51.168;4.124;2023-01-28T03:25:22;14.23;;;8.73;;
19535;SDS011;9913;51.168;4.124;2023-01-28T03:28:11;15.90;;;9.13;;
19535;SDS011;9913;51.168;4.124;2023-01-28T03:31:03;15.50;;;8.57;;
19535;SDS011;9913;51.168;4.124;2023-01-28T03:33:56;14.67;;;8.50;;
19535;SDS011;9913;51.168;4.124;2023-01-28T03:36:43;14.70;;;8.63;;
19535;SDS011;9913;51.168;4.124;2023-01-28T03:39:37;13.87;;;8.13;;
19535;SDS011;9913;51.168;4.124;2023-01-28T03:42:09;14.30;;;7.87;;
19535;SDS011;9913;51.168;4.124;2023-01-28T03:44:52;13.90;;;8.10;;
19535;SDS011;9913;51.168;4.124;2023-01-28T03:47:21;13.83;;;8.37;;
19535;SDS011;9913;51.168;4.124;2023-01-28T03:49:53;14.13;;;8.00;;
19535;SDS011;9913;51.168;4.124;2023-01-28T03:52:22;14.43;;;9.10;;
19535;SDS011;9913;51.168;4.124;2023-01-28T03:55:00;15.07;;;8.87;;
19535;SDS011;9913;51.168;4.124;2023-01-28T03:57:40;14.77;;;8.70;;
19535;SDS011;9913;51.168;4.124;2023-01-28T04:00:11;16.60;;;9.50;;
19535;SDS011;9913;51.168;4.124;2023-01-28T04:02:43;14.50;;;9.37;;
19535;SDS011;9913;51.168;4.124;2023-01-28T04:05:16;15.63;;;9.07;;
19535;SDS011;9913;51.168;4.124;2023-01-28T04:07:47;16.67;;;8.70;;
19535;SDS011;9913;51.168;4.124;2023-01-28T04:10:37;15.53;;;9.07;;
19535;SDS011;9913;51.168;4.124;2023-01-28T04:13:31;17.23;;;8.70;;
19535;SDS011;9913;51.168;4.124;2023-01-28T04:15:59;15.17;;;8.43;;
19535;SDS011;9913;51.168;4.124;2023-01-28T04:18:36;14.70;;;8.40;;
19535;SDS011;9913;51.168;4.124;2023-01-28T04:21:06;12.73;;;7.63;;
19535;SDS011;9913;51.168;4.124;2023-01-28T04:23:34;15.83;;;8.87;;
19535;SDS011;9913;51.168;4.124;2023-01-28T04:26:03;13.67;;;8.27;;
19535;SDS011;9913;51.168;4.124;2023-01-28T04:28:32;13.83;;;8.50;;
19535;SDS011;9913;51.168;4.124;2023-01-28T04:31:00;16.67;;;8.40;;
19535;SDS011;9913;51.168;4.124;2023-01-28T04:33:51;12.00;;;7.83;;
19535;SDS011;9913;51.168;4.124;2023-01-28T04:36:44;14.57;;;8.40;;
19535;SDS011;9913;51.168;4.124;2023-01-28T04:39:41;13.87;;;8.37;;
19535;SDS011;9913;51.168;4.124;2023-01-28T04:42:35;13.07;;;7.70;;
19535;SDS011;9913;51.168;4.124;2023-01-28T04:45:09;18.57;;;9.00;;
19535;SDS011;9913;51.168;4.124;2023-01-28T04:48:10;14.70;;;8.50;;
19535;SDS011;9913;51.168;4.124;2023-01-28T04:50:57;14.80;;;8.63;;
19535;SDS011;9913;51.168;4.124;2023-01-28T04:53:55;16.03;;;8.90;;
19535;SDS011;9913;51.168;4.124;2023-01-28T04:56:27;15.10;;;8.80;;
19535;SDS011;9913;51.168;4.124;2023-01-28T04:58:56;14.57;;;8.43;;
19535;SDS011;9913;51.168;4.124;2023-01-28T05:01:24;14.20;;;8.40;;
19535;SDS011;9913;51.168;4.124;2023-01-28T05:03:53;14.73;;;9.03;;
19535;SDS011;9913;51.168;4.124;2023-01-28T05:06:24;16.17;;;9.07;;
19535;SDS011;9913;51.168;4.124;2023-01-28T05:08:56;17.13;;;8.97;;
19535;SDS011;9913;51.168;4.124;2023-01-28T05:11:26;15.70;;;8.53;;
19535;SDS011;9913;51.168;4.124;2023-01-28T05:13:59;16.27;;;9.20;;
19535;SDS011;9913;51.168;4.124;2023-01-28T05:16:33;16.07;;;9.30;;
19535;SDS011;9913;51.168;4.124;2023-01-28T05:19:03;15.50;;;8.43;;
19535;SDS011;9913;51.168;4.124;2023-01-28T05:21:35;15.03;;;8.73;;
19535;SDS011;9913;51.168;4.124;2023-01-28T05:24:10;16.00;;;9.27;;
19535;SDS011;9913;51.168;4.124;2023-01-28T05:26:39;17.13;;;9.93;;
19535;SDS011;9913;51.168;4.124;2023-01-28T05:29:07;16.77;;;9.33;;
19535;SDS011;9913;51.168;4.124;2023-01-28T05:31:36;16.60;;;8.77;;
19535;SDS011;9913;51.168;4.124;2023-01-28T05:34:04;13.77;;;9.10;;
19535;SDS011;9913;51.168;4.124;2023-01-28T05:36:32;16.67;;;9.13;;
19535;SDS011;9913;51.168;4.124;2023-01-28T05:39:08;15.23;;;9.13;;
19535;SDS011;9913;51.168;4.124;2023-01-28T05:41:38;15.53;;;9.23;;
19535;SDS011;9913;51.168;4.124;2023-01-28T05:44:06;15.80;;;8.97;;
19535;SDS011;9913;51.168;4.124;2023-01-28T05:46:53;14.47;;;8.70;;
19535;SDS011;9913;51.168;4.124;2023-01-28T05:49:39;15.33;;;8.33;;
19535;SDS011;9913;51.168;4.124;2023-01-28T05:52:28;17.97;;;9.57;;
19535;SDS011;9913;51.168;4.124;2023-01-28T05:54:57;17.83;;;10.13;;
19535;SDS011;9913;51.168;4.124;2023-01-28T05:57:26;15.97;;;9.47;;
19535;SDS011;9913;51.168;4.124;2023-01-28T05:59:55;18.43;;;9.13;;
19535;SDS011;9913;51.168;4.124;2023-01-28T06:02:23;14.33;;;9.30;;
19535;SDS011;9913;51.168;4.124;2023-01-28T06:04:55;14.90;;;8.77;;
19535;SDS011;9913;51.168;4.124;2023-01-28T06:07:23;18.47;;;10.23;;
19535;SDS011;9913;51.168;4.124;2023-01-28T06:09:51;19.13;;;9.77;;
19535;SDS011;9913;51.168;4.124;2023-01-28T06:12:20;16.97;;;9.20;;
19535;SDS011;9913;51.168;4.124;2023-01-28T06:15:10;15.00;;;8.80;;
19535;SDS011;9913;51.168;4.124;2023-01-28T06:18:00;18.33;;;9.53;;
19535;SDS011;9913;51.168;4.124;2023-01-28T06:20:31;16.63;;;9.70;;
19535;SDS011;9913;51.168;4.124;2023-01-28T06:23:00;16.07;;;9.37;;
19535;SDS011;9913;51.168;4.124;2023-01-28T06:25:28;16.67;;;8.97;;
19535;SDS011;9913;51.168;4.124;2023-01-28T06:28:02;15.53;;;9.17;;
19535;SDS011;9913;51.168;4.124;2023-01-28T06:30:31;17.07;;;10.20;;
19535;SDS011;9913;51.168;4.124;2023-01-28T06:33:00;16.33;;;8.67;;
19535;SDS011;9913;51.168;4.124;2023-01-28T06:35:28;15.13;;;8.50;;
19535;SDS011;9913;51.168;4.124;2023-01-28T06:37:56;16.13;;;8.53;;
19535;SDS011;9913;51.168;4.124;2023-01-28T06:40:24;15.33;;;8.40;;
19535;SDS011;9913;51.168;4.124;2023-01-28T06:42:53;15.83;;;8.47;;
19535;SDS011;9913;51.168;4.124;2023-01-28T06:45:21;13.80;;;7.67;;
19535;SDS011;9913;51.168;4.124;2023-01-28T06:47:50;13.90;;;7.33;;
19535;SDS011;9913;51.168;4.124;2023-01-28T06:50:19;14.40;;;8.07;;
19535;SDS011;9913;51.168;4.124;2023-01-28T06:52:47;16.53;;;8.53;;
19535;SDS011;9913;51.168;4.124;2023-01-28T06:55:15;15.83;;;8.53;;
19535;SDS011;9913;51.168;4.124;2023-01-28T06:57:44;15.37;;;8.60;;
19535;SDS011;9913;51.168;4.124;2023-01-28T07:00:12;14.77;;;8.37;;
19535;SDS011;9913;51.168;4.124;2023-01-28T07:02:42;12.77;;;7.87;;
19535;SDS011;9913;51.168;4.124;2023-01-28T07:05:12;17.03;;;9.03;;
19535;SDS011;9913;51.168;4.124;2023-01-28T07:07:40;17.50;;;9.07;;
19535;SDS011;9913;51.168;4.124;2023-01-28T07:10:09;14.63;;;8.17;;
19535;SDS011;9913;51.168;4.124;2023-01-28T07:12:38;15.70;;;9.00;;
19535;SDS011;9913;51.168;4.124;2023-01-28T07:15:07;14.97;;;8.83;;
19535;SDS011;9913;51.168;4.124;2023-01-28T07:17:38;15.27;;;8.83;;
19535;SDS011;9913;51.168;4.124;2023-01-28T07:20:07;18.77;;;8.70;;
19535;SDS011;9913;51.168;4.124;2023-01-28T07:22:40;15.20;;;8.27;;
19535;SDS011;9913;51.168;4.124;2023-01-28T07:25:09;15.63;;;8.73;;
19535;SDS011;9913;51.168;4.124;2023-01-28T07:27:38;15.53;;;9.00;;
19535;SDS011;9913;51.168;4.124;2023-01-28T07:30:07;15.33;;;8.93;;
19535;SDS011;9913;51.168;4.124;2023-01-28T07:32:36;16.13;;;8.30;;
19535;SDS011;9913;51.168;4.124;2023-01-28T07:35:05;15.93;;;8.60;;
19535;SDS011;9913;51.168;4.124;2023-01-28T07:37:34;17.20;;;9.00;;
19535;SDS011;9913;51.168;4.124;2023-01-28T07:40:04;19.27;;;9.70;;
19535;SDS011;9913;51.168;4.124;2023-01-28T07:42:33;15.63;;;8.40;;
19535;SDS011;9913;51.168;4.124;2023-01-28T07:45:04;16.43;;;9.07;;
19535;SDS011;9913;51.168;4.124;2023-01-28T07:47:33;17.53;;;9.77;;
19535;SDS011;9913;51.168;4.124;2023-01-28T07:50:01;18.67;;;9.27;;
19535;SDS011;9913;51.168;4.124;2023-01-28T07:52:30;18.77;;;9.50;;
19535;SDS011;9913;51.168;4.124;2023-01-28T07:55:05;18.33;;;10.13;;
19535;SDS011;9913;51.168;4.124;2023-01-28T07:57:34;18.80;;;9.70;;
19535;SDS011;9913;51.168;4.124;2023-01-28T08:00:02;17.43;;;9.53;;
19535;SDS011;9913;51.168;4.124;2023-01-28T08:02:37;16.90;;;9.10;;
19535;SDS011;9913;51.168;4.124;2023-01-28T08:05:06;20.73;;;10.70;;
19535;SDS011;9913;51.168;4.124;2023-01-28T08:07:35;21.50;;;10.73;;
19535;SDS011;9913;51.168;4.124;2023-01-28T08:10:05;19.50;;;10.37;;
19535;SDS011;9913;51.168;4.124;2023-01-28T08:12:34;17.97;;;9.57;;
19535;SDS011;9913;51.168;4.124;2023-01-28T08:15:03;18.00;;;9.30;;
19535;SDS011;9913;51.168;4.124;2023-01-28T08:17:32;18.17;;;10.67;;
19535;SDS011;9913;51.168;4.124;2023-01-28T08:20:00;20.57;;;11.10;;
19535;SDS011;9913;51.168;4.124;2023-01-28T08:22:28;20.50;;;10.83;;
19535;SDS011;9913;51.168;4.124;2023-01-28T08:24:56;19.17;;;10.17;;
19535;SDS011;9913;51.168;4.124;2023-01-28T08:27:26;21.93;;;10.87;;
19535;SDS011;9913;51.168;4.124;2023-01-28T08:29:54;19.73;;;11.37;;
19535;SDS011;9913;51.168;4.124;2023-01-28T08:32:23;23.20;;;12.47;;
19535;SDS011;9913;51.168;4.124;2023-01-28T08:34:51;20.97;;;10.87;;
19535;SDS011;9913;51.168;4.124;2023-01-28T08:37:19;19.93;;;10.47;;
19535;SDS011;9913;51.168;4.124;2023-01-28T08:39:47;19.03;;;10.80;;
19535;SDS011;9913;51.168;4.124;2023-01-28T08:42:16;19.60;;;11.13;;
19535;SDS011;9913;51.168;4.124;2023-01-28T08:44:46;20.10;;;11.33;;
19535;SDS011;9913;51.168;4.124;2023-01-28T08:47:14;20.07;;;10.93;;
19535;SDS011;9913;51.168;4.124;2023-01-28T08:49:42;17.70;;;10.17;;
19535;SDS011;9913;51.168;4.124;2023-01-28T08:52:11;22.43;;;12.40;;
19535;SDS011;9913;51.168;4.124;2023-01-28T08:54:39;18.47;;;10.77;;
19535;SDS011;9913;51.168;4.124;2023-01-28T08:57:07;19.13;;;11.10;;
19535;SDS011;9913;51.168;4.124;2023-01-28T08:59:36;21.83;;;11.57;;
19535;SDS011;9913;51.168;4.124;2023-01-28T09:02:12;18.47;;;10.37;;
19535;SDS011;9913;51.168;4.124;2023-01-28T09:04:58;22.97;;;12.03;;
19535;SDS011;9913;51.168;4.124;2023-01-28T09:07:26;18.27;;;10.57;;
19535;SDS011;9913;51.168;4.124;2023-01-28T09:09:55;20.13;;;11.10;;
19535;SDS011;9913;51.168;4.124;2023-01-28T09:12:23;22.57;;;11.57;;
19535;SDS011;9913;51.168;4.124;2023-01-28T09:14:52;22.47;;;11.90;;
19535;SDS011;9913;51.168;4.124;2023-01-28T09:17:22;21.30;;;11.50;;
19535;SDS011;9913;51.168;4.124;2023-01-28T09:19:50;18.50;;;11.43;;
19535;SDS011;9913;51.168;4.124;2023-01-28T09:22:18;19.03;;;10.23;;
19535;SDS011;9913;51.168;4.124;2023-01-28T09:24:47;20.07;;;10.60;;
19535;SDS011;9913;51.168;4.124;2023-01-28T09:27:15;21.43;;;11.07;;
19535;SDS011;9913;51.168;4.124;2023-01-28T09:29:44;21.03;;;11.67;;
19535;SDS011;9913;51.168;4.124;2023-01-28T09:32:12;20.60;;;11.20;;
19535;SDS011;9913;51.168;4.124;2023-01-28T09:34:41;21.80;;;11.93;;
19535;SDS011;9913;51.168;4.124;2023-01-28T09:37:11;21.93;;;10.77;;
19535;SDS011;9913;51.168;4.124;2023-01-28T09:39:40;20.43;;;11.10;;
19535;SDS011;9913;51.168;4.124;2023-01-28T09:42:18;22.33;;;11.40;;
19535;SDS011;9913;51.168;4.124;2023-01-28T09:45:14;20.83;;;11.00;;
19535;SDS011;9913;51.168;4.124;2023-01-28T09:47:45;21.53;;;11.73;;
19535;SDS011;9913;51.168;4.124;2023-01-28T09:50:19;27.33;;;13.60;;
19535;SDS011;9913;51.168;4.124;2023-01-28T09:52:54;25.33;;;14.30;;
19535;SDS011;9913;51.168;4.124;2023-01-28T09:55:29;26.50;;;13.93;;
19535;SDS011;9913;51.168;4.124;2023-01-28T09:58:00;23.93;;;12.13;;
19535;SDS011;9913;51.168;4.124;2023-01-28T10:00:34;21.80;;;11.67;;
19535;SDS011;9913;51.168;4.124;2023-01-28T10:03:19;39.40;;;17.43;;
19535;SDS011;9913;51.168;4.124;2023-01-28T10:05:59;31.10;;;15.13;;
19535;SDS011;9913;51.168;4.124;2023-01-28T10:08:41;28.97;;;14.13;;
19535;SDS011;9913;51.168;4.124;2023-01-28T10:11:25;24.20;;;14.60;;
19535;SDS011;9913;51.168;4.124;2023-01-28T10:14:04;33.80;;;17.37;;
19535;SDS011;9913;51.168;4.124;2023-01-28T10:16:37;23.60;;;12.77;;
19535;SDS011;9913;51.168;4.124;2023-01-28T10:19:09;23.07;;;11.23;;
19535;SDS011;9913;51.168;4.124;2023-01-28T10:21:46;25.47;;;12.93;;
19535;SDS011;9913;51.168;4.124;2023-01-28T10:24:20;19.97;;;11.17;;
19535;SDS011;9913;51.168;4.124;2023-01-28T10:26:54;21.13;;;11.33;;
19535;SDS011;9913;51.168;4.124;2023-01-28T10:29:24;19.30;;;11.00;;
19535;SDS011;9913;51.168;4.124;2023-01-28T10:31:57;17.07;;;10.00;;
19535;SDS011;9913;51.168;4.124;2023-01-28T10:34:29;19.97;;;10.57;;
19535;SDS011;9913;51.168;4.124;2023-01-28T10:36:59;17.60;;;10.03;;
19535;SDS011;9913;51.168;4.124;2023-01-28T10:39:27;21.10;;;10.03;;
19535;SDS011;9913;51.168;4.124;2023-01-28T10:41:56;18.97;;;9.57;;
19535;SDS011;9913;51.168;4.124;2023-01-28T10:44:27;46.60;;;21.17;;
19535;SDS011;9913;51.168;4.124;2023-01-28T10:47:02;26.83;;;15.10;;
19535;SDS011;9913;51.168;4.124;2023-01-28T10:49:38;28.97;;;14.60;;
19535;SDS011;9913;51.168;4.124;2023-01-28T10:52:12;25.23;;;14.70;;
19535;SDS011;9913;51.168;4.124;2023-01-28T10:54:41;22.50;;;12.97;;
19535;SDS011;9913;51.168;4.124;2023-01-28T10:57:11;18.67;;;10.53;;
19535;SDS011;9913;51.168;4.124;2023-01-28T10:59:43;18.10;;;10.03;;
19535;SDS011;9913;51.168;4.124;2023-01-28T11:02:24;18.63;;;10.00;;
19535;SDS011;9913;51.168;4.124;2023-01-28T11:05:02;20.47;;;9.90;;
19535;SDS011;9913;51.168;4.124;2023-01-28T11:07:34;16.87;;;9.33;;
19535;SDS011;9913;51.168;4.124;2023-01-28T11:10:02;17.63;;;9.27;;
19535;SDS011;9913;51.168;4.124;2023-01-28T11:12:53;13.90;;;8.67;;
19535;SDS011;9913;51.168;4.124;2023-01-28T11:15:22;17.07;;;8.57;;
19535;SDS011;9913;51.168;4.124;2023-01-28T11:17:52;17.47;;;8.40;;
19535;SDS011;9913;51.168;4.124;2023-01-28T11:20:24;21.03;;;10.60;;
19535;SDS011;9913;51.168;4.124;2023-01-28T11:22:56;36.47;;;14.60;;
19535;SDS011;9913;51.168;4.124;2023-01-28T11:25:26;37.90;;;13.63;;
19535;SDS011;9913;51.168;4.124;2023-01-28T11:27:58;17.50;;;9.30;;
19535;SDS011;9913;51.168;4.124;2023-01-28T11:30:29;17.27;;;10.27;;
19535;SDS011;9913;51.168;4.124;2023-01-28T11:33:02;14.60;;;7.80;;
19535;SDS011;9913;51.168;4.124;2023-01-28T11:35:34;16.07;;;9.23;;
19535;SDS011;9913;51.168;4.124;2023-01-28T11:38:10;18.13;;;8.87;;
19535;SDS011;9913;51.168;4.124;2023-01-28T11:40:48;15.13;;;7.47;;
19535;SDS011;9913;51.168;4.124;2023-01-28T11:43:18;13.17;;;7.27;;
19535;SDS011;9913;51.168;4.124;2023-01-28T11:45:50;12.67;;;7.50;;
19535;SDS011;9913;51.168;4.124;2023-01-28T11:48:27;11.93;;;7.20;;
19535;SDS011;9913;51.168;4.124;2023-01-28T11:51:06;10.80;;;6.43;;
19535;SDS011;9913;51.168;4.124;2023-01-28T11:53:50;12.00;;;7.03;;
19535;SDS011;9913;51.168;4.124;2023-01-28T11:56:37;13.17;;;6.93;;
19535;SDS011;9913;51.168;4.124;2023-01-28T11:59:18;9.80;;;5.80;;
19535;SDS011;9913;51.168;4.124;2023-01-28T12:01:55;9.67;;;6.20;;
19535;SDS011;9913;51.168;4.124;2023-01-28T12:04:35;10.33;;;5.90;;
19535;SDS011;9913;51.168;4.124;2023-01-28T12:07:23;9.23;;;5.43;;
19535;SDS011;9913;51.168;4.124;2023-01-28T12:10:07;7.73;;;4.67;;
19535;SDS011;9913;51.168;4.124;2023-01-28T12:12:52;10.67;;;5.23;;
19535;SDS011;9913;51.168;4.124;2023-01-28T12:15:50;9.00;;;5.47;;
19535;SDS011;9913;51.168;4.124;2023-01-28T12:18:36;7.70;;;4.40;;
19535;SDS011;9913;51.168;4.124;2023-01-28T12:21:32;9.00;;;4.93;;
19535;SDS011;9913;51.168;4.124;2023-01-28T12:24:17;7.50;;;4.97;;
19535;SDS011;9913;51.168;4.124;2023-01-28T12:26:59;9.27;;;5.53;;
19535;SDS011;9913;51.168;4.124;2023-01-28T12:29:37;9.37;;;5.40;;
19535;SDS011;9913;51.168;4.124;2023-01-28T12:32:23;8.97;;;5.03;;
19535;SDS011;9913;51.168;4.124;2023-01-28T12:35:16;11.53;;;5.83;;
19535;SDS011;9913;51.168;4.124;2023-01-28T12:37:55;7.87;;;5.37;;
19535;SDS011;9913;51.168;4.124;2023-01-28T12:43:24;8.53;;;6.43;;
19535;SDS011;9913;51.168;4.124;2023-01-28T12:46:05;9.07;;;5.07;;
19535;SDS011;9913;51.168;4.124;2023-01-28T12:48:40;12.83;;;7.53;;
19535;SDS011;9913;51.168;4.124;2023-01-28T12:51:13;12.20;;;6.77;;
19535;SDS011;9913;51.168;4.124;2023-01-28T12:53:45;8.70;;;5.43;;
19535;SDS011;9913;51.168;4.124;2023-01-28T12:56:18;7.10;;;5.07;;
19535;SDS011;9913;51.168;4.124;2023-01-28T12:58:52;11.10;;;6.07;;
19535;SDS011;9913;51.168;4.124;2023-01-28T13:01:26;8.87;;;5.47;;
19535;SDS011;9913;51.168;4.124;2023-01-28T13:04:03;10.10;;;7.13;;
19535;SDS011;9913;51.168;4.124;2023-01-28T13:06:37;12.57;;;7.03;;
19535;SDS011;9913;51.168;4.124;2023-01-28T13:09:11;10.53;;;6.00;;
19535;SDS011;9913;51.168;4.124;2023-01-28T13:11:43;10.57;;;5.53;;
19535;SDS011;9913;51.168;4.124;2023-01-28T13:14:15;10.93;;;7.63;;
19535;SDS011;9913;51.168;4.124;2023-01-28T13:16:44;13.47;;;7.93;;
19535;SDS011;9913;51.168;4.124;2023-01-28T13:19:21;10.40;;;5.67;;
19535;SDS011;9913;51.168;4.124;2023-01-28T13:21:51;10.27;;;6.23;;
19535;SDS011;9913;51.168;4.124;2023-01-28T13:24:20;11.07;;;6.07;;
19535;SDS011;9913;51.168;4.124;2023-01-28T13:26:51;10.77;;;5.93;;
19535;SDS011;9913;51.168;4.124;2023-01-28T13:29:28;9.83;;;5.70;;
19535;SDS011;9913;51.168;4.124;2023-01-28T13:31:59;11.37;;;6.67;;
19535;SDS011;9913;51.168;4.124;2023-01-28T13:34:30;8.47;;;6.10;;
19535;SDS011;9913;51.168;4.124;2023-01-28T13:37:02;11.67;;;6.03;;
19535;SDS011;9913;51.168;4.124;2023-01-28T13:39:45;10.63;;;6.37;;
19535;SDS011;9913;51.168;4.124;2023-01-28T13:42:23;10.93;;;6.03;;
19535;SDS011;9913;51.168;4.124;2023-01-28T13:44:54;11.37;;;7.33;;
19535;SDS011;9913;51.168;4.124;2023-01-28T13:47:24;12.00;;;7.20;;
19535;SDS011;9913;51.168;4.124;2023-01-28T13:49:59;12.60;;;7.00;;
19535;SDS011;9913;51.168;4.124;2023-01-28T13:52:31;13.13;;;6.83;;
19535;SDS011;9913;51.168;4.124;2023-01-28T13:55:04;10.93;;;6.50;;
19535;SDS011;9913;51.168;4.124;2023-01-28T13:58:11;11.67;;;7.03;;
19535;SDS011;9913;51.168;4.124;2023-01-28T14:01:11;10.57;;;6.20;;
19535;SDS011;9913;51.168;4.124;2023-01-28T14:04:00;14.13;;;7.40;;
19535;SDS011;9913;51.168;4.124;2023-01-28T14:07:02;13.10;;;7.93;;
19535;SDS011;9913;51.168;4.124;2023-01-28T14:09:43;10.00;;;5.93;;
19535;SDS011;9913;51.168;4.124;2023-01-28T14:12:35;11.83;;;8.63;;
19535;SDS011;9913;51.168;4.124;2023-01-28T14:15:36;12.23;;;8.30;;
19535;SDS011;9913;51.168;4.124;2023-01-28T14:18:21;11.63;;;7.40;;
19535;SDS011;9913;51.168;4.124;2023-01-28T14:20:53;12.40;;;6.90;;
19535;SDS011;9913;51.168;4.124;2023-01-28T14:23:23;11.30;;;7.57;;
19535;SDS011;9913;51.168;4.124;2023-01-28T14:26:11;13.23;;;8.67;;
19535;SDS011;9913;51.168;4.124;2023-01-28T14:28:47;14.43;;;9.43;;
19535;SDS011;9913;51.168;4.124;2023-01-28T14:31:23;13.20;;;7.83;;
19535;SDS011;9913;51.168;4.124;2023-01-28T14:33:55;12.70;;;7.40;;
19535;SDS011;9913;51.168;4.124;2023-01-28T14:36:35;13.33;;;7.33;;
19535;SDS011;9913;51.168;4.124;2023-01-28T14:39:04;16.07;;;7.50;;
19535;SDS011;9913;51.168;4.124;2023-01-28T14:41:38;11.73;;;6.80;;
19535;SDS011;9913;51.168;4.124;2023-01-28T14:44:10;12.17;;;6.90;;
19535;SDS011;9913;51.168;4.124;2023-01-28T14:46:47;11.70;;;7.00;;
19535;SDS011;9913;51.168;4.124;2023-01-28T14:49:24;11.40;;;6.93;;
19535;SDS011;9913;51.168;4.124;2023-01-28T14:52:02;12.80;;;7.50;;
19535;SDS011;9913;51.168;4.124;2023-01-28T14:54:51;11.93;;;7.63;;
19535;SDS011;9913;51.168;4.124;2023-01-28T14:57:36;15.13;;;7.93;;
19535;SDS011;9913;51.168;4.124;2023-01-28T15:00:18;12.87;;;8.73;;
19535;SDS011;9913;51.168;4.124;2023-01-28T15:02:50;13.37;;;7.57;;
19535;SDS011;9913;51.168;4.124;2023-01-28T15:05:21;12.53;;;7.83;;
19535;SDS011;9913;51.168;4.124;2023-01-28T15:07:50;12.87;;;7.27;;
19535;SDS011;9913;51.168;4.124;2023-01-28T15:10:19;12.70;;;7.67;;
19535;SDS011;9913;51.168;4.124;2023-01-28T15:12:51;18.07;;;10.13;;
19535;SDS011;9913;51.168;4.124;2023-01-28T15:15:24;36.80;;;19.47;;
19535;SDS011;9913;51.168;4.124;2023-01-28T15:17:58;20.40;;;11.87;;
19535;SDS011;9913;51.168;4.124;2023-01-28T15:20:30;26.47;;;16.30;;
19535;SDS011;9913;51.168;4.124;2023-01-28T15:22:59;18.20;;;10.57;;
19535;SDS011;9913;51.168;4.124;2023-01-28T15:25:28;18.13;;;9.60;;
19535;SDS011;9913;51.168;4.124;2023-01-28T15:27:58;18.40;;;10.23;;
19535;SDS011;9913;51.168;4.124;2023-01-28T15:30:28;36.10;;;18.97;;
19535;SDS011;9913;51.168;4.124;2023-01-28T15:32:59;26.70;;;15.43;;
19535;SDS011;9913;51.168;4.124;2023-01-28T15:35:31;31.93;;;16.60;;
19535;SDS011;9913;51.168;4.124;2023-01-28T15:37:59;28.87;;;14.70;;
19535;SDS011;9913;51.168;4.124;2023-01-28T15:40:29;17.70;;;10.23;;